createdAt,value
2023-05-16T00:00:07.507Z,95277.00
2023-05-16T00:05:37.032Z,95269.00
2023-05-16T00:11:07.398Z,95261.00
2023-05-16T00:16:37.355Z,95260.00
2023-05-16T00:22:06.462Z,95261.00
2023-05-16T00:27:38.861Z,95260.00
2023-05-16T00:33:07.022Z,95261.00
2023-05-16T00:38:36.197Z,95266.00
2023-05-16T00:44:07.063Z,95259.00
2023-05-16T00:49:35.423Z,95248.00
2023-05-16T00:55:04.055Z,95257.00
2023-05-16T01:00:32.519Z,95257.00
2023-05-16T01:06:00.885Z,95260.00
2023-05-16T01:11:47.224Z,95258.00
2023-05-16T01:17:39.468Z,95249.00
2023-05-16T01:23:33.980Z,95251.00
2023-05-16T01:29:04.065Z,95243.00
2023-05-16T01:34:32.984Z,95247.00
2023-05-16T01:40:41.421Z,95228.00
2023-05-16T01:46:17.193Z,95225.00
2023-05-16T01:51:51.973Z,95225.00
2023-05-16T01:57:22.280Z,95230.00
2023-05-16T02:02:51.907Z,95232.00
2023-05-16T02:08:20.438Z,95238.00
2023-05-16T02:13:51.630Z,95231.00
2023-05-16T02:19:24.089Z,95247.00
2023-05-16T02:24:56.476Z,95247.00
2023-05-16T02:30:24.683Z,95239.00
2023-05-16T02:35:53.368Z,95246.00
2023-05-16T02:41:24.141Z,95238.00
2023-05-16T02:46:54.245Z,95231.00
2023-05-16T02:52:22.510Z,95237.00
2023-05-16T02:57:51.172Z,95231.00
2023-05-16T03:03:19.945Z,95232.00
2023-05-16T03:08:48.430Z,95228.00
2023-05-16T03:14:18.533Z,95226.00
2023-05-16T03:19:51.237Z,95229.00
2023-05-16T03:25:19.342Z,95233.00
2023-05-16T03:30:47.525Z,95226.00
2023-05-16T03:36:15.889Z,95232.00
2023-05-16T03:41:44.438Z,95240.00
2023-05-16T03:47:12.639Z,95229.00
2023-05-16T03:52:40.795Z,95226.00
2023-05-16T03:58:08.956Z,95219.00
2023-05-16T04:03:38.636Z,95225.00
2023-05-16T04:09:07.324Z,95235.00
2023-05-16T04:14:35.959Z,95226.00
2023-05-16T04:20:05.154Z,95228.00
2023-05-16T04:25:33.418Z,95230.00
2023-05-16T04:31:02.164Z,95239.00
2023-05-16T04:36:31.659Z,95229.00
2023-05-16T04:42:00.394Z,95224.00
2023-05-16T04:47:28.911Z,95230.00
2023-05-16T04:52:58.030Z,95215.00
2023-05-16T04:58:26.426Z,95215.00
2023-05-16T05:03:54.653Z,95225.00
2023-05-16T05:09:22.825Z,95223.00
2023-05-16T05:14:51.209Z,95229.00
2023-05-16T05:20:19.414Z,95239.00
2023-05-16T05:25:47.752Z,95236.00
2023-05-16T05:31:16.666Z,95233.00
2023-05-16T05:36:44.708Z,95234.00
2023-05-16T05:42:12.995Z,95235.00
2023-05-16T05:47:41.187Z,95235.00
2023-05-16T05:53:15.154Z,95227.00
2023-05-16T05:58:43.969Z,95223.00
2023-05-16T06:04:12.324Z,95225.00
2023-05-16T06:09:41.087Z,95228.00
2023-05-16T06:15:10.226Z,95235.00
2023-05-16T06:20:38.588Z,95223.00
2023-05-16T06:26:06.829Z,95223.00
2023-05-16T06:31:35.046Z,95237.00
2023-05-16T06:37:03.899Z,95226.00
2023-05-16T06:42:32.159Z,95229.00
2023-05-16T06:48:00.625Z,95235.00
2023-05-16T06:53:29.669Z,95247.00
2023-05-16T06:58:57.847Z,95238.00
2023-05-16T07:04:25.927Z,95226.00
2023-05-16T07:09:54.274Z,95223.00
2023-05-16T07:15:22.547Z,95230.00
2023-05-16T07:20:51.640Z,95230.00
2023-05-16T07:26:22.448Z,95220.00
2023-05-16T07:31:50.758Z,95233.00
2023-05-16T07:37:20.607Z,95247.00
2023-05-16T07:42:48.754Z,95255.00
2023-05-16T07:48:17.140Z,95263.00
2023-05-16T07:53:45.705Z,95264.00
2023-05-16T07:59:14.488Z,95267.00
2023-05-16T08:04:42.659Z,95281.00
2023-05-16T08:10:13.271Z,95281.00
2023-05-16T08:15:42.648Z,95262.00
2023-05-16T08:21:10.961Z,95280.00
2023-05-16T08:26:40.266Z,95273.00
2023-05-16T08:32:11.105Z,95277.00
2023-05-16T08:37:42.195Z,95274.00
2023-05-16T08:43:12.009Z,95272.00
2023-05-16T08:48:43.771Z,95276.00
2023-05-16T08:54:14.414Z,95287.00
2023-05-16T08:59:42.912Z,95282.00
2023-05-16T09:05:17.203Z,95269.00
2023-05-16T09:10:45.603Z,95262.00
2023-05-16T09:16:14.324Z,95258.00
2023-05-16T09:21:42.961Z,95247.00
2023-05-16T09:27:16.060Z,95252.00
2023-05-16T09:32:45.632Z,95255.00
2023-05-16T09:38:17.621Z,95251.00
2023-05-16T09:43:46.163Z,95259.00
2023-05-16T09:49:15.346Z,95263.00
2023-05-16T09:54:43.556Z,95264.00
2023-05-16T10:00:12.401Z,95270.00
2023-05-16T10:05:41.676Z,95268.00
2023-05-16T10:11:09.963Z,95267.00
2023-05-16T10:16:41.955Z,95267.00
2023-05-16T10:22:12.245Z,95271.00
2023-05-16T10:27:41.101Z,95277.00
2023-05-16T10:33:10.913Z,95279.00
2023-05-16T10:38:39.780Z,95293.00
2023-05-16T10:44:16.359Z,95280.00
2023-05-16T10:49:44.545Z,95291.00
2023-05-16T10:55:12.684Z,95291.00
2023-05-16T11:00:41.077Z,95284.00
2023-05-16T11:06:09.259Z,95288.00
2023-05-16T11:11:59.064Z,95286.00
2023-05-16T11:17:29.365Z,95283.00
2023-05-16T11:23:18.744Z,95279.00
2023-05-16T11:28:50.649Z,95267.00
2023-05-16T11:34:20.054Z,95272.00
2023-05-16T11:39:49.537Z,95286.00
2023-05-16T11:45:20.112Z,95280.00
2023-05-16T11:50:48.807Z,95276.00
2023-05-16T11:56:17.472Z,95282.00
2023-05-16T12:01:48.621Z,95275.00
2023-05-16T12:07:17.056Z,95275.00
2023-05-16T12:12:54.890Z,95275.00
2023-05-16T12:18:23.265Z,95271.00
2023-05-16T12:23:53.940Z,95270.00
2023-05-16T12:29:25.318Z,95272.00
2023-05-16T12:34:54.908Z,95270.00
2023-05-16T12:40:23.991Z,95275.00
2023-05-16T12:45:57.269Z,95264.00
2023-05-16T12:51:27.418Z,95262.00
2023-05-16T12:56:56.031Z,95257.00
2023-05-16T13:02:24.486Z,95260.00
2023-05-16T13:07:52.827Z,95265.00
2023-05-16T13:13:35.045Z,95262.00
2023-05-16T13:19:05.388Z,95254.00
2023-05-16T13:24:33.683Z,95253.00
2023-05-16T13:30:02.154Z,95259.00
2023-05-16T13:35:30.817Z,95268.00
2023-05-16T13:40:59.087Z,95263.00
2023-05-16T13:46:27.371Z,95281.00
2023-05-16T13:51:55.602Z,95275.00
2023-05-16T13:57:23.836Z,95269.00
2023-05-16T14:02:52.064Z,95277.00
2023-05-16T14:08:20.252Z,95276.00
2023-05-16T14:13:48.969Z,95283.00
2023-05-16T14:19:19.367Z,95294.00
2023-05-16T14:24:47.879Z,95298.00
2023-05-16T14:30:16.364Z,95303.00
2023-05-16T14:35:44.607Z,95311.00
2023-05-16T14:41:12.786Z,95317.00
2023-05-16T14:46:41.272Z,95328.00
2023-05-16T14:52:11.556Z,95342.00
2023-05-16T14:57:40.014Z,95344.00
2023-05-16T15:03:08.497Z,95348.00
2023-05-16T15:08:38.510Z,95350.00
2023-05-16T15:14:07.240Z,95346.00
2023-05-16T15:19:35.687Z,95355.00
2023-05-16T15:25:05.825Z,95354.00
2023-05-16T15:30:34.105Z,95356.00
2023-05-16T15:36:02.549Z,95360.00
2023-05-16T15:41:50.625Z,95367.00
2023-05-16T15:47:19.131Z,95372.00
2023-05-16T15:52:47.445Z,95372.00
2023-05-16T15:58:15.677Z,95365.00
2023-05-16T16:03:44.031Z,95371.00
2023-05-16T16:09:13.166Z,95371.00
2023-05-16T16:14:41.529Z,95377.00
2023-05-16T16:20:10.316Z,95375.00
2023-05-16T16:25:38.660Z,95379.00
2023-05-16T16:31:06.774Z,95385.00
2023-05-16T16:36:35.052Z,95394.00
2023-05-16T16:42:03.646Z,95397.00
2023-05-16T16:47:32.559Z,95400.00
2023-05-16T16:53:01.992Z,95411.00
2023-05-16T16:58:30.269Z,95419.00
2023-05-16T17:03:59.059Z,95418.00
2023-05-16T17:09:27.280Z,95419.00
2023-05-16T17:14:57.380Z,95428.00
2023-05-16T17:20:25.584Z,95421.00
2023-05-16T17:25:53.835Z,95427.00
2023-05-16T17:31:22.985Z,95421.00
2023-05-16T17:36:51.516Z,95426.00
2023-05-16T17:42:20.490Z,95416.00
2023-05-16T17:47:49.176Z,95426.00
2023-05-16T17:53:18.491Z,95433.00
2023-05-16T17:58:47.191Z,95434.00
2023-05-16T18:04:18.258Z,95439.00
2023-05-16T18:09:47.733Z,95436.00
2023-05-16T18:15:16.462Z,95447.00
2023-05-16T18:20:46.116Z,95445.00
2023-05-16T18:26:15.387Z,95446.00
2023-05-16T18:31:44.149Z,95461.00
2023-05-16T18:37:12.369Z,95466.00
2023-05-16T18:42:40.610Z,95478.00
2023-05-16T18:48:08.902Z,95484.00
2023-05-16T18:53:37.100Z,95484.00
2023-05-16T18:59:06.838Z,95491.00
2023-05-16T19:04:35.791Z,95496.00
2023-05-16T19:10:04.529Z,95506.00
2023-05-16T19:15:33.396Z,95518.00
2023-05-16T19:21:02.129Z,95520.00
2023-05-16T19:26:34.324Z,95532.00
2023-05-16T19:32:02.518Z,95546.00
2023-05-16T19:37:30.900Z,95558.00
2023-05-16T19:42:59.189Z,95556.00
2023-05-16T19:48:28.862Z,95562.00
2023-05-16T19:53:57.381Z,95557.00
2023-05-16T19:59:25.745Z,95572.00
2023-05-16T20:04:55.990Z,95576.00
2023-05-16T20:10:24.902Z,95590.00
2023-05-16T20:15:53.229Z,95585.00
2023-05-16T20:21:21.650Z,95579.00
2023-05-16T20:26:49.886Z,95581.00
2023-05-16T20:32:19.263Z,95587.00
2023-05-16T20:37:47.669Z,95581.00
2023-05-16T20:43:15.774Z,95594.00
2023-05-16T20:48:44.136Z,95596.00
2023-05-16T20:54:13.338Z,95600.00
2023-05-16T20:59:41.708Z,95602.00
2023-05-16T21:05:23.995Z,95608.00
2023-05-16T21:10:53.930Z,95613.00
2023-05-16T21:16:47.681Z,95609.00
2023-05-16T21:22:18.159Z,95603.00
2023-05-16T21:27:46.596Z,95622.00
2023-05-16T21:33:14.932Z,95623.00
2023-05-16T21:38:43.176Z,95634.00
2023-05-16T21:44:17.160Z,95636.00
2023-05-16T21:49:45.583Z,95647.00
2023-05-16T21:55:14.068Z,95646.00
2023-05-16T22:00:42.210Z,95650.00
2023-05-16T22:06:10.327Z,95646.00
2023-05-16T22:11:38.553Z,95657.00
2023-05-16T22:17:06.681Z,95663.00
2023-05-16T22:22:36.059Z,95654.00
2023-05-16T22:28:04.399Z,95663.00
2023-05-16T22:33:32.901Z,95667.00
2023-05-16T22:39:01.349Z,95666.00
2023-05-16T22:44:29.572Z,95670.00
2023-05-16T22:49:57.810Z,95677.00
2023-05-16T22:55:26.387Z,95677.00
2023-05-16T23:00:54.606Z,95685.00
2023-05-16T23:06:22.713Z,95694.00
2023-05-16T23:11:51.308Z,95689.00
2023-05-16T23:17:19.426Z,95694.00
2023-05-16T23:22:47.702Z,95695.00
2023-05-16T23:28:16.168Z,95707.00
2023-05-16T23:33:44.420Z,95711.00
2023-05-16T23:39:12.652Z,95710.00
2023-05-16T23:44:41.925Z,95719.00
2023-05-16T23:50:10.990Z,95722.00
2023-05-16T23:55:39.075Z,95721.00
